Time;durP1;ratioP1;P1;durP2;ratioP2;P2;SDS_P1;SDS_P2;PMS_P1;PMS_P2;Temp;Humidity;BMP_temperature;BMP_pressure;BME280_temperature;BME280_humidity;BME280_pressure;Samples;Min_cycle;Max_cycle;Signal;HPM_P1;HPM_P2
2022/10/26 00:01:03;;;;;;;5.07;4.57;;;12.40;99.90;;;;;;5130000;27;20204;-68
2022/10/26 00:03:33;;;;;;;5.07;4.67;;;12.40;99.90;;;;;;5129457;27;20232;-68
2022/10/26 00:06:05;;;;;;;5.23;4.57;;;12.40;99.90;;;;;;5129738;27;20212;-68
2022/10/26 00:08:32;;;;;;;6.67;4.97;;;12.40;99.90;;;;;;5129933;27;20292;-68
2022/10/26 00:10:59;;;;;;;6.77;4.53;;;12.40;99.90;;;;;;5119539;27;20218;-68
2022/10/26 00:13:26;;;;;;;5.47;4.70;;;12.50;99.90;;;;;;5109397;28;20216;-68
2022/10/26 00:15:53;;;;;;;6.60;4.40;;;12.50;99.90;;;;;;5108877;28;20926;-68
2022/10/26 00:18:19;;;;;;;6.43;4.60;;;12.50;99.90;;;;;;5119224;27;20229;-68
2022/10/26 00:20:47;;;;;;;7.07;4.73;;;12.50;99.90;;;;;;5129493;27;20205;-68
2022/10/26 00:23:14;;;;;;;6.03;4.30;;;12.50;99.90;;;;;;5129704;27;20212;-68
2022/10/26 00:25:41;;;;;;;5.83;4.83;;;12.40;99.90;;;;;;5125815;27;20210;-68
2022/10/26 00:28:07;;;;;;;7.30;4.40;;;12.30;99.90;;;;;;5109145;28;20221;-68
2022/10/26 00:30:35;;;;;;;5.57;4.20;;;12.30;99.90;;;;;;5126357;27;20246;-68
2022/10/26 00:33:01;;;;;;;5.00;4.57;;;12.20;99.90;;;;;;5128953;27;20584;-68
2022/10/26 00:35:28;;;;;;;4.40;4.00;;;12.20;99.90;;;;;;5129425;27;20212;-68
2022/10/26 00:37:56;;;;;;;5.87;4.10;;;12.10;99.90;;;;;;5129263;27;20759;-68
2022/10/26 00:40:27;;;;;;;3.97;3.77;;;12.10;99.90;;;;;;5128891;27;20882;-68
2022/10/26 00:42:53;;;;;;;6.07;4.57;;;12.10;99.90;;;;;;5129002;27;20201;-68
2022/10/26 00:45:22;;;;;;;4.93;4.00;;;12.10;99.90;;;;;;5129350;27;20213;-68
2022/10/26 00:47:53;;;;;;;4.90;4.50;;;12.10;99.90;;;;;;5128995;27;20212;-68
2022/10/26 00:50:24;;;;;;;4.40;4.10;;;12.10;99.90;;;;;;5128983;27;20781;-68
2022/10/26 00:52:52;;;;;;;5.67;4.33;;;12.10;99.90;;;;;;5129063;27;20648;-68
2022/10/26 00:55:23;;;;;;;5.30;4.50;;;12.10;99.90;;;;;;5128744;27;20197;-68
2022/10/26 00:57:53;;;;;;;5.40;4.90;;;12.10;99.90;;;;;;5129102;27;20197;-69
2022/10/26 01:00:20;;;;;;;4.40;4.10;;;12.20;99.90;;;;;;5129186;27;20205;-68
2022/10/26 01:02:50;;;;;;;4.73;4.33;;;12.10;99.90;;;;;;5128427;27;20256;-68
2022/10/26 01:05:19;;;;;;;4.50;4.20;;;12.10;99.90;;;;;;5128879;27;20213;-69
2022/10/26 01:07:47;;;;;;;4.47;4.17;;;12.10;99.90;;;;;;5128047;27;20233;-68
2022/10/26 01:10:14;;;;;;;5.13;4.10;;;12.00;99.90;;;;;;5128431;27;20216;-69
2022/10/26 01:12:42;;;;;;;4.90;4.37;;;12.00;99.90;;;;;;5129005;27;20626;-68
2022/10/26 01:15:09;;;;;;;5.07;4.57;;;12.00;99.90;;;;;;5128652;27;20197;-68
2022/10/26 01:17:55;;;;;;;6.07;4.80;;;12.00;99.90;;;;;;5128541;27;20225;-68
2022/10/26 01:20:46;;;;;;;5.63;4.43;;;11.90;99.90;;;;;;5129007;27;20197;-68
2022/10/26 01:23:23;;;;;;;5.83;4.43;;;11.90;99.90;;;;;;5128873;27;20197;-68
2022/10/26 01:26:15;;;;;;;4.93;4.53;;;11.90;99.90;;;;;;5123830;27;20194;-68
2022/10/26 01:29:04;;;;;;;4.47;4.10;;;11.70;99.90;;;;;;5108131;28;20194;-68
2022/10/26 01:31:39;;;;;;;4.73;3.93;;;11.70;99.90;;;;;;5108130;28;20205;-68
2022/10/26 01:34:12;;;;;;;4.70;4.20;;;11.60;99.90;;;;;;5107892;28;20186;-68
2022/10/26 01:36:43;;;;;;;4.73;4.33;;;11.70;99.90;;;;;;5107761;28;20670;-68
2022/10/26 01:39:18;;;;;;;4.43;4.10;;;11.70;99.90;;;;;;5123324;28;20217;-68
2022/10/26 01:41:47;;;;;;;4.53;4.13;;;11.70;99.90;;;;;;5130479;27;20194;-68
2022/10/26 01:44:20;;;;;;;4.83;4.23;;;11.70;99.90;;;;;;5133141;27;20216;-68
2022/10/26 01:46:51;;;;;;;8.33;4.40;;;11.70;99.90;;;;;;5132437;27;20197;-68
2022/10/26 01:49:22;;;;;;;4.53;4.20;;;11.70;99.90;;;;;;5132868;27;20599;-68
2022/10/26 01:51:50;;;;;;;5.30;3.90;;;11.70;99.90;;;;;;5132619;27;20203;-68
2022/10/26 01:54:17;;;;;;;5.00;4.60;;;11.70;99.90;;;;;;5132259;27;20205;-68
2022/10/26 01:56:47;;;;;;;5.30;4.30;;;11.80;99.90;;;;;;5131937;27;20205;-68
2022/10/26 01:59:27;;;;;;;4.70;4.40;;;11.80;99.90;;;;;;5132208;27;20721;-69
2022/10/26 02:02:18;;;;;;;4.40;4.07;;;11.70;99.90;;;;;;5132126;27;20711;-69
2022/10/26 02:05:09;;;;;;;4.40;4.00;;;11.60;99.90;;;;;;5111666;28;20202;-69
2022/10/26 02:07:45;;;;;;;3.97;3.50;;;11.60;99.90;;;;;;5101083;28;20237;-69
2022/10/26 02:10:23;;;;;;;4.30;3.90;;;11.60;99.90;;;;;;5114652;27;20744;-69
2022/10/26 02:13:01;;;;;;;4.73;4.10;;;11.50;99.90;;;;;;5132053;27;20198;-69
2022/10/26 02:15:37;;;;;;;4.77;4.47;;;11.50;99.90;;;;;;5132361;27;20208;-69
2022/10/26 02:18:15;;;;;;;6.13;4.50;;;11.50;99.90;;;;;;5132323;27;20196;-69
2022/10/26 02:20:46;;;;;;;4.63;4.20;;;11.50;99.90;;;;;;5120156;27;20213;-69
2022/10/26 02:23:14;;;;;;;5.13;4.57;;;11.50;99.90;;;;;;5130012;27;20194;-69
2022/10/26 02:25:46;;;;;;;4.90;4.43;;;11.50;99.90;;;;;;5131798;27;20208;-69
2022/10/26 02:28:16;;;;;;;5.27;4.77;;;11.50;99.90;;;;;;5132118;27;20197;-68
2022/10/26 02:30:46;;;;;;;6.80;4.60;;;11.50;99.90;;;;;;5131978;27;20656;-69
2022/10/26 02:33:16;;;;;;;5.57;4.03;;;11.50;99.90;;;;;;5131546;27;20202;-69
2022/10/26 02:35:47;;;;;;;4.40;4.03;;;11.60;99.90;;;;;;5131878;27;20201;-69
2022/10/26 02:38:16;;;;;;;6.37;4.77;;;11.60;99.90;;;;;;5131574;27;20194;-69
2022/10/26 02:40:45;;;;;;;4.80;4.40;;;11.70;99.90;;;;;;5131508;27;20236;-69
2022/10/26 02:43:15;;;;;;;5.87;4.10;;;11.70;99.90;;;;;;5131269;27;20552;-69
2022/10/26 02:45:46;;;;;;;6.37;4.00;;;11.80;99.90;;;;;;5131353;27;20189;-69
2022/10/26 02:48:15;;;;;;;4.63;4.17;;;11.70;99.90;;;;;;5131476;27;20189;-69
2022/10/26 02:50:51;;;;;;;4.97;4.40;;;11.80;99.90;;;;;;5131341;27;20660;-69
2022/10/26 02:53:25;;;;;;;5.80;3.90;;;11.80;99.90;;;;;;5129983;27;20201;-69
2022/10/26 02:55:52;;;;;;;5.03;4.30;;;11.80;99.90;;;;;;5126345;27;20209;-69
2022/10/26 02:58:24;;;;;;;5.27;4.80;;;11.70;99.90;;;;;;5110317;28;20665;-69
2022/10/26 03:00:52;;;;;;;5.63;4.73;;;11.80;99.90;;;;;;5130027;27;20205;-69
2022/10/26 03:03:21;;;;;;;6.57;4.90;;;11.80;99.90;;;;;;5130460;27;20237;-69
2022/10/26 03:05:48;;;;;;;5.33;4.80;;;11.80;99.90;;;;;;5130483;27;20656;-69
2022/10/26 03:08:15;;;;;;;4.57;4.20;;;11.80;99.90;;;;;;5130044;27;20656;-69
2022/10/26 03:10:43;;;;;;;5.30;4.80;;;11.80;99.90;;;;;;5131156;27;20213;-69
2022/10/26 03:13:10;;;;;;;6.50;4.90;;;11.80;99.90;;;;;;5130821;27;20208;-69
2022/10/26 03:15:39;;;;;;;7.13;5.10;;;11.80;99.90;;;;;;5130743;27;20201;-69
2022/10/26 03:18:07;;;;;;;4.80;4.40;;;11.80;99.90;;;;;;5123933;27;20202;-69
2022/10/26 03:20:35;;;;;;;5.23;4.40;;;11.80;99.90;;;;;;5120658;27;20229;-69
2022/10/26 03:23:02;;;;;;;8.00;4.97;;;11.80;99.90;;;;;;5130817;27;20213;-69
2022/10/26 03:25:28;;;;;;;5.27;4.60;;;11.70;99.90;;;;;;5128849;27;20229;-69
2022/10/26 03:27:59;;;;;;;4.83;4.33;;;11.70;99.90;;;;;;5110007;28;20213;-66
2022/10/26 03:30:27;;;;;;;6.27;4.00;;;11.70;99.90;;;;;;5109801;28;20687;-67
2022/10/26 03:32:54;;;;;;;6.03;4.10;;;11.70;99.90;;;;;;5109665;28;20194;-67
2022/10/26 03:35:21;;;;;;;4.10;3.70;;;11.70;99.90;;;;;;5124001;27;20217;-67
2022/10/26 03:37:49;;;;;;;5.40;4.70;;;11.70;99.90;;;;;;5130432;27;20228;-68
2022/10/26 03:40:16;;;;;;;4.67;3.93;;;11.70;99.90;;;;;;5130217;27;20236;-67
2022/10/26 03:42:43;;;;;;;4.60;4.20;;;11.60;99.90;;;;;;5130218;27;20201;-67
2022/10/26 03:45:10;;;;;;;4.47;4.07;;;11.60;99.90;;;;;;5130454;27;20212;-67
2022/10/26 03:47:43;;;;;;;7.30;4.20;;;11.60;99.90;;;;;;5129978;27;20699;-67
2022/10/26 03:50:11;;;;;;;4.43;3.90;;;11.60;99.90;;;;;;5130253;27;20277;-67
2022/10/26 03:52:38;;;;;;;5.23;4.00;;;11.60;99.90;;;;;;5130314;27;20205;-68
2022/10/26 03:55:08;;;;;;;4.50;4.10;;;11.50;99.90;;;;;;5127471;27;20205;-67
2022/10/26 03:57:35;;;;;;;7.77;4.37;;;11.50;99.90;;;;;;5115794;27;20199;-68
2022/10/26 04:00:02;;;;;;;4.40;4.10;;;11.50;99.90;;;;;;5129932;27;20233;-67
2022/10/26 04:02:29;;;;;;;5.40;4.23;;;11.50;99.90;;;;;;5129480;27;20616;-68
2022/10/26 04:04:55;;;;;;;4.87;4.47;;;11.50;99.90;;;;;;5129495;27;20201;-68
2022/10/26 04:07:22;;;;;;;4.80;4.30;;;11.50;99.90;;;;;;5129508;27;20610;-68
2022/10/26 04:09:49;;;;;;;6.40;4.30;;;11.50;99.90;;;;;;5129437;27;20217;-68
2022/10/26 04:12:17;;;;;;;4.60;4.20;;;11.40;99.90;;;;;;5129921;27;20276;-68
2022/10/26 04:14:43;;;;;;;4.40;4.10;;;11.40;99.90;;;;;;5129483;27;20623;-68
2022/10/26 04:17:10;;;;;;;4.50;4.20;;;11.50;99.90;;;;;;5129757;27;20202;-68
2022/10/26 04:19:37;;;;;;;5.20;4.00;;;11.40;99.90;;;;;;5126745;27;20236;-68
2022/10/26 04:22:03;;;;;;;3.87;3.57;;;11.50;99.90;;;;;;5108865;28;20580;-68
2022/10/26 04:24:31;;;;;;;4.47;4.13;;;11.40;99.90;;;;;;5122968;27;20193;-68
2022/10/26 04:26:58;;;;;;;5.70;4.37;;;11.50;99.90;;;;;;5129212;27;20213;-68
2022/10/26 04:29:26;;;;;;;4.80;4.33;;;11.40;99.90;;;;;;5129584;27;20216;-68
2022/10/26 04:31:52;;;;;;;4.67;4.27;;;11.40;99.90;;;;;;5129368;27;20503;-68
2022/10/26 04:34:19;;;;;;;5.40;4.90;;;11.50;99.90;;;;;;5129293;27;20215;-68
2022/10/26 04:36:46;;;;;;;6.27;4.67;;;11.50;99.90;;;;;;5129307;27;20205;-68
2022/10/26 04:39:13;;;;;;;4.90;4.50;;;11.40;99.90;;;;;;5128868;27;20205;-68
2022/10/26 04:41:39;;;;;;;5.17;4.77;;;11.50;99.90;;;;;;5128841;27;20712;-68
2022/10/26 04:44:06;;;;;;;4.83;4.43;;;11.50;99.90;;;;;;5128976;27;20202;-68
2022/10/26 04:46:34;;;;;;;5.00;4.70;;;11.50;99.90;;;;;;5128435;27;20652;-68
2022/10/26 04:49:01;;;;;;;4.90;4.50;;;11.50;99.90;;;;;;5129039;27;20217;-68
2022/10/26 04:51:27;;;;;;;4.87;4.47;;;11.50;99.90;;;;;;5125761;27;20201;-68
2022/10/26 04:53:54;;;;;;;4.57;4.27;;;11.50;99.90;;;;;;5128713;27;20206;-68
2022/10/26 04:56:21;;;;;;;5.40;5.00;;;11.50;99.90;;;;;;5119781;27;20660;-67
2022/10/26 04:58:48;;;;;;;4.93;4.50;;;11.50;99.90;;;;;;5123235;27;20194;-67
2022/10/26 05:01:14;;;;;;;4.50;4.20;;;11.50;99.90;;;;;;5126661;27;20722;-68
2022/10/26 05:03:42;;;;;;;6.03;4.70;;;11.50;99.90;;;;;;5129062;27;20193;-68
2022/10/26 05:06:09;;;;;;;7.40;4.73;;;11.50;99.90;;;;;;5128902;27;20225;-69
2022/10/26 05:08:36;;;;;;;5.23;4.73;;;11.40;99.90;;;;;;5128622;27;20237;-68
2022/10/26 05:11:03;;;;;;;5.20;4.70;;;11.40;99.90;;;;;;5127892;27;20201;-68
2022/10/26 05:13:29;;;;;;;5.33;4.83;;;11.40;99.90;;;;;;5128393;27;20209;-68
2022/10/26 05:15:56;;;;;;;4.93;4.53;;;11.40;99.90;;;;;;5128193;27;20201;-68
2022/10/26 05:18:23;;;;;;;5.83;5.17;;;11.40;99.90;;;;;;5128942;27;20210;-68
2022/10/26 05:20:52;;;;;;;5.70;5.30;;;11.40;99.90;;;;;;5128615;27;20610;-68
2022/10/26 05:23:20;;;;;;;5.47;5.07;;;11.40;99.90;;;;;;5128622;27;20205;-68
2022/10/26 05:25:47;;;;;;;6.07;5.13;;;11.40;99.90;;;;;;5125259;27;20221;-68
2022/10/26 05:28:15;;;;;;;5.00;4.53;;;11.40;99.90;;;;;;5128529;27;20198;-68
2022/10/26 05:30:43;;;;;;;6.17;5.67;;;11.40;99.90;;;;;;5128511;27;20216;-68
2022/10/26 05:33:11;;;;;;;6.53;5.17;;;11.30;99.90;;;;;;5128578;27;20205;-68
2022/10/26 05:35:38;;;;;;;6.43;5.93;;;11.30;99.90;;;;;;5127791;27;20197;-68
2022/10/26 05:38:10;;;;;;;7.07;6.37;;;11.30;99.90;;;;;;5128896;27;20208;-67
2022/10/26 05:40:36;;;;;;;6.87;6.30;;;11.30;99.90;;;;;;5127552;27;20229;-68
2022/10/26 05:43:04;;;;;;;7.07;6.47;;;11.30;99.90;;;;;;5108080;28;20209;-68
2022/10/26 05:45:30;;;;;;;8.53;6.60;;;11.30;99.90;;;;;;5113707;28;20197;-68
2022/10/26 05:47:57;;;;;;;6.40;5.97;;;11.30;99.90;;;;;;5119726;27;20206;-68
2022/10/26 05:50:24;;;;;;;8.73;6.80;;;11.30;99.90;;;;;;5107761;28;20205;-68
2022/10/26 05:52:51;;;;;;;7.57;6.33;;;11.30;99.90;;;;;;5107746;28;20198;-68
2022/10/26 05:55:19;;;;;;;8.20;6.70;;;11.30;99.90;;;;;;5122311;28;20675;-68
2022/10/26 05:57:47;;;;;;;7.00;6.40;;;11.30;99.90;;;;;;5107810;28;20210;-68
2022/10/26 06:00:17;;;;;;;7.30;6.10;;;11.30;99.90;;;;;;5107653;28;20233;-68
2022/10/26 06:02:59;;;;;;;6.67;6.00;;;11.30;99.90;;;;;;5120003;28;20285;-68
2022/10/26 06:05:28;;;;;;;6.70;5.67;;;11.20;99.90;;;;;;5127901;27;20212;-68
2022/10/26 06:07:55;;;;;;;6.53;5.97;;;11.20;99.90;;;;;;5112257;27;20573;-67
2022/10/26 06:10:24;;;;;;;6.20;5.73;;;11.20;99.90;;;;;;5107150;28;20198;-68
2022/10/26 06:12:52;;;;;;;6.83;6.23;;;11.20;99.90;;;;;;5107637;28;20305;-68
2022/10/26 06:15:21;;;;;;;6.73;6.13;;;11.10;99.90;;;;;;5107642;28;20210;-68
2022/10/26 06:17:59;;;;;;;6.43;5.83;;;11.10;99.90;;;;;;5107532;28;20198;-68
2022/10/26 06:20:46;;;;;;;5.73;5.23;;;11.10;99.90;;;;;;5116054;28;20220;-68
2022/10/26 06:23:29;;;;;;;5.70;5.20;;;11.10;99.90;;;;;;5127933;27;20194;-68
2022/10/26 06:26:05;;;;;;;5.27;4.87;;;11.00;99.90;;;;;;5127328;27;20198;-68
2022/10/26 06:28:39;;;;;;;5.90;5.30;;;11.10;99.90;;;;;;5131131;27;20193;-68
2022/10/26 06:31:06;;;;;;;5.57;5.17;;;11.00;99.90;;;;;;5131890;27;20188;-68
2022/10/26 06:33:33;;;;;;;5.40;5.00;;;11.00;99.90;;;;;;5131576;27;20197;-68
2022/10/26 06:36:13;;;;;;;5.30;4.90;;;11.00;99.90;;;;;;5131467;27;20571;-68
2022/10/26 06:38:44;;;;;;;5.30;4.90;;;11.00;99.90;;;;;;5131515;27;20193;-68
2022/10/26 06:41:15;;;;;;;5.57;5.00;;;11.00;99.90;;;;;;5131392;27;20630;-68
2022/10/26 06:43:42;;;;;;;4.80;4.40;;;11.00;99.90;;;;;;5126906;27;20202;-68
2022/10/26 06:46:21;;;;;;;5.73;4.67;;;11.00;99.90;;;;;;5121553;27;20212;-68
2022/10/26 06:48:54;;;;;;;4.37;4.07;;;11.00;99.90;;;;;;5127255;27;20190;-68
2022/10/26 06:51:21;;;;;;;5.80;4.37;;;11.10;99.90;;;;;;5131387;27;20192;-68
2022/10/26 06:53:57;;;;;;;4.80;4.30;;;11.10;99.90;;;;;;5131239;27;20205;-68
2022/10/26 06:56:26;;;;;;;5.40;5.00;;;11.20;99.90;;;;;;5131407;27;20202;-68
2022/10/26 06:58:55;;;;;;;5.40;5.00;;;11.20;99.90;;;;;;5131063;27;20201;-68
2022/10/26 07:01:22;;;;;;;5.90;5.37;;;11.20;99.90;;;;;;5131003;27;20228;-69
2022/10/26 07:03:49;;;;;;;5.90;5.40;;;11.20;99.90;;;;;;5116785;27;20248;-68
2022/10/26 07:06:15;;;;;;;5.50;5.00;;;11.20;99.90;;;;;;5110515;28;20225;-68
2022/10/26 07:08:42;;;;;;;5.33;4.93;;;11.20;99.90;;;;;;5110099;28;20210;-69
2022/10/26 07:11:09;;;;;;;7.30;5.40;;;11.20;99.90;;;;;;5109968;28;20213;-68
2022/10/26 07:13:37;;;;;;;7.70;5.23;;;11.30;99.90;;;;;;5111517;27;20210;-68
2022/10/26 07:16:04;;;;;;;8.23;5.53;;;11.30;99.90;;;;;;5130682;27;20599;-68
2022/10/26 07:18:31;;;;;;;5.17;4.70;;;11.40;99.90;;;;;;5130991;27;20213;-68
2022/10/26 07:20:58;;;;;;;5.33;4.77;;;11.40;99.90;;;;;;5130288;27;20264;-68
2022/10/26 07:23:25;;;;;;;6.47;5.00;;;11.50;99.90;;;;;;5110424;28;20229;-68
2022/10/26 07:25:52;;;;;;;5.20;4.80;;;11.50;99.90;;;;;;5114438;27;20209;-68
2022/10/26 07:28:19;;;;;;;5.30;4.90;;;11.60;99.90;;;;;;5130874;27;20208;-68
2022/10/26 07:30:47;;;;;;;5.70;4.87;;;11.60;99.90;;;;;;5130569;27;20211;-68
2022/10/26 07:33:14;;;;;;;6.60;5.07;;;11.70;99.90;;;;;;5119548;27;20202;-68
2022/10/26 07:35:41;;;;;;;5.60;5.10;;;11.70;99.90;;;;;;5130316;27;20597;-68
2022/10/26 07:38:08;;;;;;;5.87;5.10;;;11.80;99.90;;;;;;5130214;27;20587;-68
2022/10/26 07:40:36;;;;;;;5.00;4.67;;;11.90;99.90;;;;;;5129049;27;20244;-68
2022/10/26 07:43:03;;;;;;;5.10;4.60;;;11.90;99.90;;;;;;5130444;27;20284;-68
2022/10/26 07:45:30;;;;;;;6.43;5.40;;;12.00;99.90;;;;;;5130102;27;20664;-68
2022/10/26 07:47:58;;;;;;;5.53;5.03;;;12.10;99.90;;;;;;5129710;27;20206;-68
2022/10/26 07:50:25;;;;;;;5.00;4.63;;;12.10;99.90;;;;;;5130348;27;20216;-68
2022/10/26 07:52:52;;;;;;;5.40;4.90;;;12.20;99.90;;;;;;5130372;27;20209;-68
2022/10/26 07:55:19;;;;;;;6.80;5.17;;;12.20;99.90;;;;;;5130165;27;20208;-68
2022/10/26 07:57:46;;;;;;;5.33;4.83;;;12.30;99.90;;;;;;5129889;27;20240;-68
2022/10/26 08:00:14;;;;;;;6.03;5.10;;;12.40;99.90;;;;;;5129840;27;20220;-68
2022/10/26 08:02:40;;;;;;;5.03;4.63;;;12.40;99.90;;;;;;5129312;27;20263;-68
2022/10/26 08:05:09;;;;;;;8.13;4.93;;;12.50;99.90;;;;;;5129828;27;20734;-68
2022/10/26 08:07:41;;;;;;;6.10;5.43;;;12.60;99.90;;;;;;5129523;27;20226;-68
2022/10/26 08:10:09;;;;;;;5.50;5.00;;;12.60;99.90;;;;;;5129795;27;20325;-68
2022/10/26 08:12:35;;;;;;;5.80;5.33;;;12.60;99.90;;;;;;5129836;27;20209;-68
2022/10/26 08:15:02;;;;;;;5.70;5.10;;;12.70;99.90;;;;;;5129891;27;20206;-68
2022/10/26 08:17:29;;;;;;;5.80;5.30;;;12.80;99.90;;;;;;5129854;27;20574;-68
2022/10/26 08:19:56;;;;;;;5.73;5.23;;;12.80;99.90;;;;;;5129271;27;20398;-68
2022/10/26 08:22:24;;;;;;;6.43;5.07;;;12.90;99.90;;;;;;5129477;27;20236;-69
2022/10/26 08:24:51;;;;;;;6.90;5.80;;;13.00;99.90;;;;;;5129438;27;20206;-68
2022/10/26 08:27:17;;;;;;;5.70;5.20;;;13.00;99.90;;;;;;5112706;27;20205;-68
2022/10/26 08:29:44;;;;;;;5.90;5.30;;;13.10;99.90;;;;;;5108615;28;20233;-69
2022/10/26 08:32:11;;;;;;;5.70;5.10;;;13.20;99.90;;;;;;5111978;27;20193;-68
2022/10/26 08:34:37;;;;;;;6.30;5.40;;;13.20;99.90;;;;;;5129253;27;20210;-68
2022/10/26 08:37:04;;;;;;;5.63;5.23;;;13.20;99.90;;;;;;5117390;27;20221;-68
2022/10/26 08:39:32;;;;;;;5.47;5.03;;;13.30;99.90;;;;;;5108511;28;20206;-68
2022/10/26 08:42:06;;;;;;;5.20;4.70;;;13.30;99.90;;;;;;5126008;27;20229;-68
2022/10/26 08:44:37;;;;;;;8.03;5.43;;;13.40;99.90;;;;;;5126836;27;20690;-68
2022/10/26 08:47:11;;;;;;;6.20;5.50;;;13.50;99.90;;;;;;5128728;27;20201;-68
2022/10/26 08:49:45;;;;;;;6.13;5.03;;;13.60;99.90;;;;;;5128442;27;20771;-68
2022/10/26 08:52:17;;;;;;;5.47;4.97;;;13.70;99.90;;;;;;5129129;27;20207;-69
2022/10/26 08:54:51;;;;;;;5.57;4.97;;;13.80;99.90;;;;;;5128688;27;20306;-69
2022/10/26 08:57:22;;;;;;;8.10;5.20;;;13.80;99.90;;;;;;5126528;27;20529;-68
2022/10/26 08:59:54;;;;;;;6.73;4.97;;;13.80;99.90;;;;;;5128945;27;20200;-68
2022/10/26 09:02:23;;;;;;;7.17;5.20;;;13.80;99.90;;;;;;5128519;27;20703;-68
2022/10/26 09:04:51;;;;;;;7.27;5.10;;;13.80;99.90;;;;;;5128503;27;20799;-69
2022/10/26 09:07:40;;;;;;;6.67;4.57;;;13.90;99.90;;;;;;5129086;27;20228;-68
2022/10/26 09:10:22;;;;;;;4.97;4.40;;;14.00;99.90;;;;;;5128644;27;20675;-68
2022/10/26 09:12:54;;;;;;;4.83;4.43;;;14.10;99.90;;;;;;5128056;27;20189;-68
2022/10/26 09:15:32;;;;;;;6.10;4.70;;;14.20;99.90;;;;;;5128782;27;20193;-68
2022/10/26 09:18:14;;;;;;;6.07;4.30;;;14.20;99.90;;;;;;5128590;27;20204;-69
2022/10/26 09:20:55;;;;;;;5.10;4.30;;;14.40;99.90;;;;;;5116747;27;20194;-68
2022/10/26 09:23:48;;;;;;;6.30;4.57;;;14.40;99.90;;;;;;5108239;28;20198;-68
2022/10/26 09:26:33;;;;;;;4.30;4.00;;;14.50;99.90;;;;;;5115908;27;20205;-68
2022/10/26 09:29:03;;;;;;;4.37;3.97;;;14.50;99.90;;;;;;5128454;27;20557;-69
2022/10/26 09:31:39;;;;;;;7.60;4.60;;;14.60;99.90;;;;;;5128624;27;20209;-69
2022/10/26 09:34:07;;;;;;;4.13;3.83;;;14.70;99.90;;;;;;5128415;27;20208;-68
2022/10/26 09:36:35;;;;;;;4.03;3.70;;;14.70;99.90;;;;;;5128285;27;20691;-68
2022/10/26 09:39:12;;;;;;;5.10;3.70;;;14.80;99.90;;;;;;5128194;27;20198;-68
2022/10/26 09:41:44;;;;;;;6.27;3.83;;;14.90;99.90;;;;;;5128167;27;20221;-68
2022/10/26 09:44:23;;;;;;;3.90;3.27;;;15.00;99.90;;;;;;5128570;27;20208;-68
2022/10/26 09:46:56;;;;;;;3.87;3.50;;;15.00;99.90;;;;;;5112029;28;20284;-68
2022/10/26 09:49:32;;;;;;;6.50;3.30;;;15.10;99.90;;;;;;5128482;27;20190;-68
2022/10/26 09:51:58;;;;;;;5.77;3.07;;;15.20;99.90;;;;;;5127813;27;20197;-68
2022/10/26 09:54:25;;;;;;;4.87;3.30;;;15.30;99.90;;;;;;5128101;27;20296;-69
2022/10/26 09:56:57;;;;;;;5.27;3.20;;;15.30;99.90;;;;;;5114800;27;20852;-69
2022/10/26 09:59:25;;;;;;;2.77;2.57;;;15.40;99.90;;;;;;5107897;28;20561;-68
2022/10/26 10:01:52;;;;;;;4.50;2.90;;;15.50;99.90;;;;;;5111181;27;20268;-68
2022/10/26 10:04:21;;;;;;;3.17;2.97;;;15.50;99.90;;;;;;5132368;27;20216;-68
2022/10/26 10:06:49;;;;;;;3.13;2.80;;;15.60;99.90;;;;;;5132023;27;20590;-68
2022/10/26 10:09:18;;;;;;;3.63;2.73;;;15.70;99.90;;;;;;5132100;27;20422;-68
2022/10/26 10:11:53;;;;;;;4.30;2.80;;;15.80;99.90;;;;;;5131999;27;20197;-68
2022/10/26 10:14:23;;;;;;;5.00;2.60;;;15.80;99.90;;;;;;5132058;27;20765;-69
2022/10/26 10:16:53;;;;;;;3.40;2.70;;;15.90;99.90;;;;;;5131840;27;20198;-68
2022/10/26 10:19:26;;;;;;;3.30;2.50;;;16.00;99.90;;;;;;5131705;27;20762;-68
2022/10/26 10:21:56;;;;;;;2.43;2.20;;;16.10;99.90;;;;;;5131527;27;20237;-68
2022/10/26 10:24:25;;;;;;;2.67;2.47;;;16.20;99.90;;;;;;5131371;27;20193;-69
2022/10/26 10:27:03;;;;;;;3.83;2.40;;;16.30;99.90;;;;;;5118620;27;20202;-69
2022/10/26 10:29:33;;;;;;;2.27;2.17;;;16.30;99.90;;;;;;5114056;27;20225;-69
2022/10/26 10:32:02;;;;;;;5.30;2.27;;;16.40;99.90;;;;;;5111072;28;20212;-68
2022/10/26 10:34:31;;;;;;;3.80;2.13;;;16.50;99.90;;;;;;5111360;28;20202;-68
2022/10/26 10:36:58;;;;;;;1.90;1.70;;;16.60;99.90;;;;;;5124992;27;20201;-68
2022/10/26 10:39:39;;;;;;;3.23;1.67;;;16.60;99.90;;;;;;5131508;27;20197;-68
2022/10/26 10:42:16;;;;;;;1.80;1.63;;;16.70;99.90;;;;;;5131297;27;20233;-69
2022/10/26 10:44:46;;;;;;;1.93;1.80;;;16.80;99.90;;;;;;5131708;27;20284;-68
2022/10/26 10:47:22;;;;;;;2.90;1.83;;;16.90;99.90;;;;;;5131599;27;20603;-69
2022/10/26 10:49:55;;;;;;;3.73;1.60;;;17.00;99.90;;;;;;5131149;27;20315;-69
2022/10/26 10:52:25;;;;;;;2.33;1.70;;;17.10;99.90;;;;;;5131347;27;20197;-69
2022/10/26 10:54:59;;;;;;;2.13;1.60;;;17.20;99.90;;;;;;5130329;27;20201;-68
2022/10/26 10:57:32;;;;;;;1.80;1.57;;;17.30;99.90;;;;;;5131102;27;20291;-69
2022/10/26 11:00:03;;;;;;;2.40;1.70;;;17.30;99.90;;;;;;5130643;27;21066;-68
2022/10/26 11:02:58;;;;;;;4.23;2.00;;;17.40;99.90;;;;;;5130632;27;20241;-69
2022/10/26 11:05:55;;;;;;;2.93;1.50;;;17.60;99.90;;;;;;5125576;27;20212;-69
2022/10/26 11:08:27;;;;;;;2.10;1.70;;;17.70;99.90;;;;;;5128790;27;20210;-68
2022/10/26 11:10:59;;;;;;;4.80;1.60;;;17.80;99.90;;;;;;5130673;27;20193;-68
2022/10/26 11:13:31;;;;;;;3.23;1.83;;;17.90;99.90;;;;;;5129932;27;20561;-68
2022/10/26 11:16:03;;;;;;;3.17;1.63;;;18.00;99.90;;;;;;5130653;27;20236;-69
2022/10/26 11:18:35;;;;;;;1.53;1.43;;;18.10;99.90;;;;;;5130833;27;20205;-68
2022/10/26 11:21:11;;;;;;;4.33;1.60;;;18.20;99.90;;;;;;5130657;27;20210;-68
2022/10/26 11:23:41;;;;;;;1.50;1.40;;;18.30;99.90;;;;;;5130481;27;20671;-69
2022/10/26 11:26:14;;;;;;;2.80;1.80;;;18.40;99.90;;;;;;5126167;27;20209;-69
2022/10/26 11:28:48;;;;;;;3.90;1.40;;;18.50;99.90;;;;;;5130443;27;20205;-69
2022/10/26 11:31:22;;;;;;;3.43;1.17;;;18.60;99.90;;;;;;5130830;27;20189;-69
2022/10/26 11:34:19;;;;;;;3.37;1.47;;;18.70;99.90;;;;;;5112933;27;20206;-69
2022/10/26 11:36:51;;;;;;;4.40;1.30;;;18.70;99.90;;;;;;5106157;28;20202;-69
2022/10/26 11:39:25;;;;;;;3.77;1.23;;;18.90;99.90;;;;;;5109778;28;20374;-69
2022/10/26 11:41:56;;;;;;;2.20;1.20;;;18.90;99.90;;;;;;5109900;28;20214;-69
2022/10/26 11:44:33;;;;;;;1.77;1.30;;;19.00;99.90;;;;;;5109851;28;20198;-68
2022/10/26 11:47:07;;;;;;;1.77;1.50;;;19.10;99.90;;;;;;5129567;27;20189;-69
2022/10/26 11:49:41;;;;;;;2.60;1.23;;;19.20;99.90;;;;;;5130011;27;20225;-69
2022/10/26 11:52:16;;;;;;;1.33;1.10;;;19.30;99.90;;;;;;5130136;27;20201;-69
2022/10/26 11:54:47;;;;;;;2.47;1.17;;;19.40;99.90;;;;;;5129944;27;20189;-69
2022/10/26 11:57:15;;;;;;;3.83;1.07;;;19.50;99.90;;;;;;5129869;27;20270;-69
2022/10/26 11:59:47;;;;;;;1.30;1.20;;;19.50;99.90;;;;;;5129408;27;20216;-68
2022/10/26 12:02:18;;;;;;;4.43;1.30;;;19.60;99.90;;;;;;5129595;27;20644;-69
2022/10/26 12:04:49;;;;;;;2.70;1.13;;;19.70;99.90;;;;;;5129704;27;20194;-69
2022/10/26 12:07:24;;;;;;;2.42;1.25;;;19.80;99.90;;;;;;5129892;27;20232;-69
2022/10/26 12:09:51;;;;;;;3.55;1.95;;;19.80;99.90;;;;;;5129556;27;20196;-69
2022/10/26 12:12:26;;;;;;;1.53;1.43;;;19.90;99.90;;;;;;5129848;27;20201;-69
2022/10/26 12:14:59;;;;;;;3.20;1.30;;;20.00;99.90;;;;;;5129618;27;20189;-69
2022/10/26 12:17:36;;;;;;;5.38;1.58;;;20.00;99.90;;;;;;5130046;27;20205;-69
2022/10/26 12:20:12;;;;;;;5.30;1.98;;;20.00;99.90;;;;;;5129087;27;20261;-69
2022/10/26 12:22:39;;;;;;;6.90;2.53;;;20.10;99.90;;;;;;5128953;27;20236;-69
2022/10/26 12:25:19;;;;;;;3.97;2.42;;;20.20;99.90;;;;;;5128909;27;20216;-69
2022/10/26 12:27:52;;;;;;;1.98;1.50;;;20.30;99.90;;;;;;5108924;28;20190;-69
2022/10/26 12:30:29;;;;;;;4.50;1.42;;;20.30;99.90;;;;;;5122875;27;20208;-69
2022/10/26 12:32:59;;;;;;;1.45;1.08;;;20.40;99.90;;;;;;5128735;27;20196;-69
2022/10/26 12:35:44;;;;;;;2.05;1.33;;;20.40;99.90;;;;;;5129282;27;20198;-69
2022/10/26 12:38:48;;;;;;;2.38;1.30;;;20.40;99.90;;;;;;5129291;27;20189;-69
2022/10/26 12:41:23;;;;;;;3.33;1.60;;;20.50;99.90;;;;;;5128969;27;20233;-69
2022/10/26 12:43:54;;;;;;;3.47;1.55;;;20.60;99.90;;;;;;5129022;27;20282;-68
2022/10/26 12:46:44;;;;;;;1.65;1.23;;;20.50;99.90;;;;;;5129039;27;20202;-69
2022/10/26 12:49:58;;;;;;;3.83;1.30;;;20.60;99.90;;;;;;5129302;27;20277;-68
2022/10/26 12:52:46;;;;;;;2.80;1.13;;;20.70;99.90;;;;;;5128941;27;20227;-68
2022/10/26 12:55:52;;;;;;;4.68;1.55;;;20.70;99.90;;;;;;5128903;27;20193;-68
2022/10/26 12:58:55;;;;;;;2.92;1.40;;;20.70;99.90;;;;;;5123510;27;20664;-68
2022/10/26 13:01:45;;;;;;;2.90;1.58;;;20.70;99.90;;;;;;5128847;27;20195;-69
2022/10/26 13:04:24;;;;;;;3.97;1.20;;;20.90;99.90;;;;;;5129003;27;20189;-68
2022/10/26 13:07:17;;;;;;;2.63;1.17;;;20.90;99.90;;;;;;5128603;27;20232;-68
2022/10/26 13:09:53;;;;;;;3.40;1.55;;;21.00;99.90;;;;;;5126864;27;20202;-69